Terminal Aerodrome Forecast
Issued by NWS

Home | Current Version | Previous Version | Graphics & Text | Print | Product List | Glossary On
Versions: 1 2 3 4 5 6 7 8 9 10 11 12 13 14 15 16 17
221
FTUS43 KGRB 092158 AAB
TAFMTW
TAF AMD
KMTW 092158Z 0922/1018 30012KT P6SM BKN045
     FM100000 27009KT P6SM FEW020 BKN040
     FM100600 27008KT P6SM FEW020 BKN060
     FM101500 27008KT P6SM FEW020 SCT070=

USA.gov is the U.S. government's official web portal to all federal, state and local government web resources and services.